Time;durP1;ratioP1;P1;durP2;ratioP2;P2;SDS_P1;SDS_P2;PMS_P1;PMS_P2;Temp;Humidity;BMP_temperature;BMP_pressure;BME280_temperature;BME280_humidity;BME280_pressure;Samples;Min_cycle;Max_cycle;Signal;HPM_P1;HPM_P2
2022/02/03 00:00:26;;;;;;;6.32;5.43;;;;;;;;;;6156203;23;20016;-73
2022/02/03 00:03:09;;;;;;;10.55;6.30;;;;;;;;;;6155956;23;20022;-76
2022/02/03 00:22:09;;;;;;;5.72;5.07;;;;;;;;;;6155947;23;20013;-70
2022/02/03 00:24:50;;;;;;;8.18;5.90;;;;;;;;;;6129842;23;20445;-70
2022/02/03 00:27:18;;;;;;;;;;;;;;;;;;6156454;23;20028;-70
2022/02/03 00:32:26;;;;;;;6.38;5.00;;;;;;;;;;6156217;23;20057;-71
2022/02/03 00:35:09;;;;;;;7.93;4.90;;;;;;;;;;6156271;23;20015;-71
2022/02/03 00:37:58;;;;;;;8.18;4.78;;;;;;;;;;6156111;23;20346;-71
2022/02/03 00:51:09;;;;;;;3.95;3.45;;;;;;;;;;6155961;23;20436;-71
2022/02/03 00:53:36;;;;;;;5.63;3.60;;;;;;;;;;6155688;23;20121;-70
2022/02/03 00:56:04;;;;;;;3.60;3.30;;;;;;;;;;6157163;23;20384;-70
2022/02/03 00:58:31;;;;;;;3.42;2.97;;;;;;;;;;6157439;23;20044;-71
2022/02/03 01:00:58;;;;;;;3.03;2.72;;;;;;;;;;6131591;23;20048;-71
2022/02/03 01:03:33;;;;;;;3.42;2.90;;;;;;;;;;6157369;23;20037;-74
2022/02/03 01:06:07;;;;;;;2.78;2.55;;;;;;;;;;6157277;23;20002;-75
2022/02/03 01:08:36;;;;;;;2.40;2.20;;;;;;;;;;6158132;23;20001;-75
2022/02/03 01:11:14;;;;;;;2.67;2.03;;;;;;;;;;6158007;23;20068;-75
2022/02/03 01:13:50;;;;;;;3.20;2.08;;;;;;;;;;6157403;23;20001;-70
2022/02/03 01:35:24;;;;;;;2.00;1.70;;;;;;;;;;6157545;23;20005;-70
2022/02/03 01:43:19;;;;;;;2.65;2.13;;;;;;;;;;6131113;23;20006;-75
2022/02/03 01:43:47;;;;;;;2.63;2.42;;;;;;;;;;6157131;23;20017;-70
2022/02/03 01:46:16;;;;;;;2.30;2.20;;;;;;;;;;6157361;23;20006;-70
2022/02/03 01:53:59;;;;;;;2.08;1.95;;;;;;;;;;6157109;23;20037;-75
2022/02/03 01:56:35;;;;;;;2.53;2.15;;;;;;;;;;6156987;23;20000;-75
2022/02/03 01:59:02;;;;;;;2.10;2.00;;;;;;;;;;6157494;23;20311;-72
2022/02/03 02:01:29;;;;;;;2.30;2.10;;;;;;;;;;6156932;23;19994;-72
2022/02/03 02:04:04;;;;;;;2.97;2.20;;;;;;;;;;6156732;23;20013;-71
2022/02/03 02:06:29;;;;;;;2.28;2.03;;;;;;;;;;6130590;23;20001;-70
2022/02/03 02:09:01;;;;;;;2.97;2.58;;;;;;;;;;6156555;23;20005;-70
2022/02/03 02:11:36;;;;;;;3.25;2.53;;;;;;;;;;6130673;23;20048;-70
2022/02/03 02:44:02;;;;;;;3.00;2.15;;;;;;;;;;6156465;23;20005;-71
2022/02/03 02:46:31;;;;;;;2.40;2.20;;;;;;;;;;6156474;23;20481;-71
2022/02/03 02:49:00;;;;;;;2.03;1.92;;;;;;;;;;6156903;23;20013;-71
2022/02/03 02:51:34;;;;;;;2.47;2.20;;;;;;;;;;6156556;23;20017;-70
2022/02/03 03:02:56;;;;;;;2.30;2.10;;;;;;;;;;6156306;23;20446;-75
2022/02/03 03:35:47;;;;;;;2.75;2.50;;;;;;;;;;6156504;23;20422;-70
2022/02/03 03:38:15;;;;;;;2.88;2.67;;;;;;;;;;6156538;23;20010;-75
2022/02/03 03:40:45;;;;;;;3.08;2.47;;;;;;;;;;6156317;23;20005;-75
2022/02/03 03:43:12;;;;;;;4.30;3.15;;;;;;;;;;6155973;23;20041;-75
2022/02/03 03:45:51;;;;;;;2.97;2.65;;;;;;;;;;6130550;23;19997;-76
2022/02/03 03:48:19;;;;;;;2.65;2.45;;;;;;;;;;6130615;23;20001;-75
2022/02/03 03:50:50;;;;;;;2.78;2.47;;;;;;;;;;6156137;23;19998;-74
2022/02/03 03:53:25;;;;;;;2.60;2.40;;;;;;;;;;6130905;23;20017;-75
2022/02/03 03:58:54;;;;;;;2.65;2.50;;;;;;;;;;6155940;23;20299;-75
2022/02/03 04:38:50;;;;;;;3.20;2.40;;;;;;;;;;6128328;23;20006;-70
2022/02/03 04:55:56;;;;;;;2.47;2.25;;;;;;;;;;6127989;23;20374;-70
2022/02/03 05:06:46;;;;;;;2.78;2.28;;;;;;;;;;6149883;23;20009;-71
2022/02/03 05:21:03;;;;;;;2.05;1.92;;;;;;;;;;6156957;23;20089;-71
2022/02/03 05:24:11;;;;;;;3.05;1.90;;;;;;;;;;6106660;23;20014;-69
2022/02/03 05:26:57;;;;;;;2.67;2.17;;;;;;;;;;6115419;23;20097;-70
2022/02/03 05:44:19;;;;;;;3.00;2.72;;;;;;;;;;6131249;23;20013;-70
2022/02/03 06:05:28;;;;;;;7.07;3.85;;;;;;;;;;6156568;23;20426;-70
2022/02/03 06:08:16;;;;;;;5.90;3.45;;;;;;;;;;6156772;23;20006;-71
2022/02/03 06:13:39;;;;;;;2.15;1.95;;;;;;;;;;6157048;23;20005;-71
2022/02/03 06:29:16;;;;;;;3.20;2.08;;;;;;;;;;6156679;23;20024;-70
2022/02/03 06:31:42;;;;;;;2.38;2.17;;;;;;;;;;6130116;23;20006;-70
2022/02/03 06:34:08;;;;;;;4.88;3.55;;;;;;;;;;6156183;23;20009;-70
2022/02/03 06:36:34;;;;;;;7.28;3.90;;;;;;;;;;6156185;23;20064;-70
2022/02/03 06:39:00;;;;;;;6.85;4.40;;;;;;;;;;6156271;23;20514;-70
2022/02/03 06:41:25;;;;;;;9.38;5.43;;;;;;;;;;6156212;23;20025;-70
2022/02/03 06:43:50;;;;;;;9.18;5.13;;;;;;;;;;6155789;23;20109;-71
2022/02/03 06:46:16;;;;;;;7.05;4.70;;;;;;;;;;6156463;23;19998;-70
2022/02/03 06:48:48;;;;;;;5.28;2.92;;;;;;;;;;6155897;23;20013;-71
2022/02/03 06:51:21;;;;;;;3.97;2.72;;;;;;;;;;6129946;23;20005;-71
2022/02/03 06:53:52;;;;;;;2.97;2.53;;;;;;;;;;6155962;23;20056;-71
2022/02/03 06:56:41;;;;;;;3.38;2.35;;;;;;;;;;6129992;23;20342;-71
2022/02/03 06:59:12;;;;;;;2.93;2.27;;;;;;;;;;6156120;23;20387;-70
2022/02/03 07:01:42;;;;;;;3.55;2.83;;;;;;;;;;6155475;23;20562;-68
2022/02/03 07:04:17;;;;;;;3.45;2.55;;;;;;;;;;6156000;23;20001;-70
2022/02/03 07:06:43;;;;;;;2.35;2.00;;;;;;;;;;6156118;23;20002;-70
2022/02/03 07:09:09;;;;;;;2.55;2.35;;;;;;;;;;6155807;23;20050;-70
2022/02/03 07:11:38;;;;;;;4.38;2.90;;;;;;;;;;6155780;23;20434;-70
2022/02/03 07:14:05;;;;;;;3.67;2.85;;;;;;;;;;6156304;23;20021;-70
2022/02/03 07:16:34;;;;;;;4.68;3.63;;;;;;;;;;6105427;23;20080;-70
2022/02/03 07:18:59;;;;;;;5.00;3.63;;;;;;;;;;6156665;23;20035;-70
2022/02/03 07:21:24;;;;;;;7.68;3.85;;;;;;;;;;6156309;23;20005;-70
2022/02/03 07:23:50;;;;;;;7.00;4.00;;;;;;;;;;6156145;23;20036;-70
2022/02/03 07:26:15;;;;;;;4.28;2.95;;;;;;;;;;6155481;23;20010;-70
2022/02/03 07:28:41;;;;;;;11.68;4.90;;;;;;;;;;6154934;23;20005;-70
2022/02/03 07:31:07;;;;;;;7.55;3.58;;;;;;;;;;6154718;23;20419;-70
2022/02/03 07:33:33;;;;;;;8.77;4.03;;;;;;;;;;6154868;23;20016;-70
2022/02/03 07:35:58;;;;;;;3.42;2.78;;;;;;;;;;6154811;23;20076;-70
2022/02/03 07:38:24;;;;;;;3.67;3.05;;;;;;;;;;6154739;23;20058;-70
2022/02/03 07:40:50;;;;;;;3.85;2.75;;;;;;;;;;6129231;23;20084;-70
2022/02/03 07:43:15;;;;;;;4.38;3.10;;;;;;;;;;6155349;23;20005;-70
2022/02/03 07:45:40;;;;;;;4.07;3.28;;;;;;;;;;6155521;23;20365;-70
2022/02/03 07:48:07;;;;;;;10.20;4.90;;;;;;;;;;6129601;23;19998;-70
2022/02/03 07:50:32;;;;;;;12.45;6.30;;;;;;;;;;6129614;23;20093;-70
2022/02/03 07:52:58;;;;;;;10.85;6.30;;;;;;;;;;6155715;23;20025;-71
2022/02/03 07:55:23;;;;;;;9.05;4.75;;;;;;;;;;6155645;23;20016;-71
2022/02/03 07:57:50;;;;;;;8.48;4.88;;;;;;;;;;6155731;23;20002;-70
2022/02/03 08:00:16;;;;;;;10.73;4.78;;;;;;;;;;6155487;23;20009;-70
2022/02/03 08:02:43;;;;;;;6.95;4.90;;;;;;;;;;6128960;23;20017;-70
2022/02/03 08:05:09;;;;;;;7.55;4.88;;;;;;;;;;6156164;23;20084;-71
2022/02/03 08:07:45;;;;;;;4.28;3.20;;;;;;;;;;6157427;23;20001;-71
2022/02/03 08:10:18;;;;;;;3.95;2.78;;;;;;;;;;6131601;23;20001;-71
2022/02/03 08:12:46;;;;;;;2.85;2.65;;;;;;;;;;6157536;23;20006;-71
2022/02/03 08:15:12;;;;;;;3.08;2.78;;;;;;;;;;6157544;23;20457;-71
2022/02/03 08:17:40;;;;;;;6.45;4.20;;;;;;;;;;6157621;23;20005;-71
2022/02/03 08:20:12;;;;;;;5.45;3.70;;;;;;;;;;6157530;23;19997;-70
2022/02/03 08:22:41;;;;;;;5.30;3.53;;;;;;;;;;6157441;23;20006;-71
2022/02/03 08:25:23;;;;;;;5.82;3.42;;;;;;;;;;6157475;23;20002;-71
2022/02/03 08:32:55;;;;;;;12.30;5.10;;;;;;;;;;6157192;23;20092;-71
2022/02/03 08:35:23;;;;;;;11.05;5.32;;;;;;;;;;6157588;23;20422;-70
2022/02/03 08:40:31;;;;;;;11.85;5.75;;;;;;;;;;6157423;23;20043;-71
2022/02/03 08:42:56;;;;;;;12.95;8.65;;;;;;;;;;6156949;23;20029;-71
2022/02/03 08:45:22;;;;;;;18.77;14.00;;;;;;;;;;6157096;23;20422;-71
2022/02/03 08:47:48;;;;;;;19.17;12.82;;;;;;;;;;6157191;23;20032;-71
2022/02/03 08:50:13;;;;;;;12.27;7.47;;;;;;;;;;6157060;23;20477;-71
2022/02/03 08:55:25;;;;;;;13.30;8.68;;;;;;;;;;6157191;23;20005;-71
2022/02/03 09:36:07;;;;;;;10.00;5.70;;;;;;;;;;6038864;23;20023;-74
2022/02/03 09:52:18;;;;;;;6.10;4.07;;;;;;;;;;6130456;23;20378;-74
2022/02/03 10:02:18;;;;;;;12.55;7.22;;;;;;;;;;6155651;23;20021;-74
2022/02/03 10:07:16;;;;;;;8.10;5.53;;;;;;;;;;6156351;23;19997;-74
2022/02/03 10:09:42;;;;;;;12.30;7.03;;;;;;;;;;6106104;23;20014;-74
2022/02/03 10:12:08;;;;;;;13.50;7.50;;;;;;;;;;6156475;23;20373;-74
2022/02/03 10:14:35;;;;;;;9.98;5.75;;;;;;;;;;6130168;23;20013;-74
2022/02/03 10:17:03;;;;;;;16.00;7.05;;;;;;;;;;6155966;23;20026;-74
2022/02/03 10:19:50;;;;;;;9.02;5.60;;;;;;;;;;6156394;23;20016;-74
2022/02/03 10:22:18;;;;;;;8.82;5.03;;;;;;;;;;6155808;23;20075;-74
2022/02/03 10:24:47;;;;;;;8.63;6.13;;;;;;;;;;6130210;23;20024;-74
2022/02/03 10:27:35;;;;;;;13.02;6.85;;;;;;;;;;6156011;23;20338;-74
2022/02/03 10:30:13;;;;;;;10.43;6.55;;;;;;;;;;6156325;23;20001;-74
2022/02/03 10:32:45;;;;;;;10.60;5.50;;;;;;;;;;6130111;23;20045;-74
2022/02/03 10:35:21;;;;;;;9.73;5.55;;;;;;;;;;6156276;23;20049;-74
2022/02/03 10:38:04;;;;;;;10.55;6.75;;;;;;;;;;6156228;23;20084;-74
2022/02/03 10:40:54;;;;;;;15.75;6.45;;;;;;;;;;6156235;23;20028;-75
2022/02/03 10:43:48;;;;;;;12.48;7.75;;;;;;;;;;6130157;23;20006;-75
2022/02/03 10:49:18;;;;;;;18.38;9.82;;;;;;;;;;6156242;23;20443;-75
2022/02/03 11:07:29;;;;;;;17.45;10.98;;;;;;;;;;6129892;23;20017;-75
2022/02/03 11:10:07;;;;;;;16.35;8.82;;;;;;;;;;6156022;23;20016;-75
2022/02/03 11:12:32;;;;;;;17.55;9.23;;;;;;;;;;6156041;23;20037;-75
2022/02/03 11:14:59;;;;;;;18.75;10.50;;;;;;;;;;6104966;23;20009;-74
2022/02/03 11:17:25;;;;;;;19.73;11.60;;;;;;;;;;6156824;23;20025;-75
2022/02/03 11:19:53;;;;;;;15.10;7.63;;;;;;;;;;6156324;23;20002;-75
2022/02/03 11:22:25;;;;;;;16.85;9.40;;;;;;;;;;6156444;23;20510;-75
2022/02/03 11:25:05;;;;;;;13.63;8.15;;;;;;;;;;6130254;23;20002;-75
2022/02/03 11:27:51;;;;;;;11.60;7.10;;;;;;;;;;6156625;23;20009;-75
2022/02/03 11:41:22;;;;;;;12.52;7.82;;;;;;;;;;6155791;23;20448;-75
2022/02/03 11:49:04;;;;;;;15.25;7.78;;;;;;;;;;6155844;23;20335;-75
2022/02/03 11:52:00;;;;;;;11.65;7.88;;;;;;;;;;6155729;23;20438;-75
2022/02/03 11:54:58;;;;;;;12.98;8.07;;;;;;;;;;6155505;23;20010;-75
2022/02/03 12:19:28;;;;;;;14.45;9.27;;;;;;;;;;6155971;23;20012;-74
2022/02/03 12:22:38;;;;;;;13.65;8.85;;;;;;;;;;6156359;23;20013;-75
2022/02/03 12:25:28;;;;;;;13.05;7.78;;;;;;;;;;6153747;23;20010;-76
2022/02/03 12:31:04;;;;;;;18.52;10.02;;;;;;;;;;6156141;23;20009;-75
2022/02/03 12:38:49;;;;;;;16.63;8.93;;;;;;;;;;6129711;23;20064;-76
2022/02/03 12:41:21;;;;;;;21.58;10.02;;;;;;;;;;6156007;23;20335;-75
2022/02/03 12:44:06;;;;;;;17.67;9.50;;;;;;;;;;6156082;23;20032;-76
2022/02/03 12:46:32;;;;;;;20.50;9.88;;;;;;;;;;6155920;23;20029;-76
2022/02/03 12:48:58;;;;;;;18.05;9.13;;;;;;;;;;6129900;23;19998;-75
2022/02/03 12:51:25;;;;;;;17.70;8.73;;;;;;;;;;6156379;23;20005;-75
2022/02/03 12:53:51;;;;;;;16.63;9.32;;;;;;;;;;6157781;23;20025;-76
2022/02/03 12:56:22;;;;;;;18.73;9.55;;;;;;;;;;6157815;23;20005;-76
2022/02/03 12:58:52;;;;;;;16.13;8.18;;;;;;;;;;6157939;23;20335;-76
2022/02/03 13:01:28;;;;;;;18.45;9.05;;;;;;;;;;6131893;23;20004;-76
2022/02/03 13:03:54;;;;;;;18.25;9.35;;;;;;;;;;6156460;23;20045;-76
2022/02/03 13:06:24;;;;;;;25.30;12.20;;;;;;;;;;6157105;23;20005;-76
2022/02/03 13:08:52;;;;;;;21.60;9.23;;;;;;;;;;6157282;23;20129;-76
2022/02/03 13:16:26;;;;;;;16.30;9.02;;;;;;;;;;6157103;23;20434;-76
2022/02/03 13:18:59;;;;;;;21.40;9.93;;;;;;;;;;6131100;23;20029;-76
2022/02/03 13:22:13;;;;;;;19.38;9.23;;;;;;;;;;6156978;23;20088;-75
2022/02/03 13:26:41;;;;;;;20.73;11.45;;;;;;;;;;6156935;23;20383;-75
2022/02/03 13:29:11;;;;;;;35.47;15.23;;;;;;;;;;6156739;23;20005;-75
2022/02/03 13:31:49;;;;;;;24.10;12.90;;;;;;;;;;6156833;23;20005;-75
2022/02/03 13:34:23;;;;;;;17.55;8.93;;;;;;;;;;6130822;23;20009;-76
2022/02/03 13:36:55;;;;;;;15.90;8.35;;;;;;;;;;6156758;23;20028;-76
2022/02/03 13:39:36;;;;;;;15.45;7.40;;;;;;;;;;6156788;23;20006;-76
2022/02/03 13:42:03;;;;;;;20.60;8.80;;;;;;;;;;6156780;23;20323;-75
2022/02/03 13:44:29;;;;;;;16.25;8.35;;;;;;;;;;6156789;23;19998;-76
2022/02/03 13:46:54;;;;;;;23.55;9.73;;;;;;;;;;6156250;23;20089;-76
2022/02/03 13:49:22;;;;;;;16.05;7.43;;;;;;;;;;6156706;23;19994;-76
2022/02/03 13:52:03;;;;;;;10.02;5.38;;;;;;;;;;6130503;23;20385;-76
2022/02/03 13:54:54;;;;;;;16.80;7.68;;;;;;;;;;6156595;23;20009;-75
2022/02/03 14:22:02;;;;;;;15.18;8.43;;;;;;;;;;6130978;23;20020;-75
2022/02/03 14:29:55;;;;;;;;;;;;;;;;;;6156764;23;20001;-75
2022/02/03 14:32:38;;;;;;;15.15;8.68;;;;;;;;;;6156366;23;19958;-76
2022/02/03 14:35:09;;;;;;;16.73;9.43;;;;;;;;;;6156368;23;20005;-75
2022/02/03 14:42:37;;;;;;;17.20;10.07;;;;;;;;;;6156481;23;20008;-75
2022/02/03 14:45:05;;;;;;;14.05;8.23;;;;;;;;;;6156270;23;20088;-75
2022/02/03 14:47:31;;;;;;;16.35;9.60;;;;;;;;;;6156341;23;20021;-75
2022/02/03 14:50:01;;;;;;;15.45;8.77;;;;;;;;;;6156001;23;20001;-75
2022/02/03 14:52:30;;;;;;;11.90;6.43;;;;;;;;;;6130124;23;20362;-75
2022/02/03 15:00:27;;;;;;;12.85;7.13;;;;;;;;;;6155738;23;20485;-71
2022/02/03 15:02:52;;;;;;;14.57;5.95;;;;;;;;;;6155531;23;20007;-74
2022/02/03 15:05:38;;;;;;;15.60;6.70;;;;;;;;;;6156464;23;20009;-74
2022/02/03 15:08:13;;;;;;;25.13;8.55;;;;;;;;;;6106135;23;20009;-74
2022/02/03 15:10:46;;;;;;;23.27;9.00;;;;;;;;;;6156592;23;20006;-75
2022/02/03 15:15:38;;;;;;;17.00;8.30;;;;;;;;;;6156612;23;20020;-75
2022/02/03 15:18:04;;;;;;;17.20;8.32;;;;;;;;;;6156144;23;20430;-75
2022/02/03 15:20:36;;;;;;;11.93;7.07;;;;;;;;;;6156121;23;20354;-75
2022/02/03 15:23:03;;;;;;;28.10;12.73;;;;;;;;;;6155887;23;20064;-75
2022/02/03 15:25:35;;;;;;;111.30;49.45;;;;;;;;;;6156380;23;20527;-75
2022/02/03 15:28:00;;;;;;;80.40;38.97;;;;;;;;;;6130235;23;20001;-75
2022/02/03 15:30:27;;;;;;;65.45;34.05;;;;;;;;;;6155934;23;20448;-76
2022/02/03 15:32:56;;;;;;;51.17;27.27;;;;;;;;;;6130109;23;20446;-76
2022/02/03 15:35:33;;;;;;;71.65;41.75;;;;;;;;;;6155991;23;20001;-76
2022/02/03 15:38:01;;;;;;;50.40;28.80;;;;;;;;;;6156193;23;20005;-75
2022/02/03 15:40:28;;;;;;;63.15;39.88;;;;;;;;;;6156048;23;20002;-75
2022/02/03 15:43:08;;;;;;;61.42;37.25;;;;;;;;;;6155735;23;20006;-76
2022/02/03 15:45:38;;;;;;;67.63;36.90;;;;;;;;;;6155920;23;20037;-74
2022/02/03 15:48:13;;;;;;;65.35;33.95;;;;;;;;;;6129862;23;20233;-70
2022/02/03 15:59:36;;;;;;;192.73;110.93;;;;;;;;;;6156199;23;20060;-70
2022/02/03 16:17:22;;;;;;;197.90;93.53;;;;;;;;;;6148503;23;20005;-75
2022/02/03 16:22:26;;;;;;;197.38;110.57;;;;;;;;;;6153086;23;20016;-74
2022/02/03 16:25:01;;;;;;;189.63;102.85;;;;;;;;;;6153653;23;20013;-75
2022/02/03 16:54:10;;;;;;;190.73;112.40;;;;;;;;;;6154933;23;20430;-75
2022/02/03 16:56:37;;;;;;;132.77;78.00;;;;;;;;;;6154694;23;20006;-75
2022/02/03 16:59:03;;;;;;;120.68;68.68;;;;;;;;;;6154081;23;20013;-75
2022/02/03 17:01:29;;;;;;;91.10;46.83;;;;;;;;;;6154083;23;20502;-75
2022/02/03 17:03:55;;;;;;;193.35;88.65;;;;;;;;;;6153016;23;20044;-73
2022/02/03 17:06:21;;;;;;;91.60;45.70;;;;;;;;;;6153248;23;20021;-70
2022/02/03 17:08:48;;;;;;;98.75;54.83;;;;;;;;;;6154235;23;19998;-74
2022/02/03 17:11:14;;;;;;;99.45;57.83;;;;;;;;;;6154690;23;20024;-74
2022/02/03 17:13:39;;;;;;;113.30;61.38;;;;;;;;;;6154955;23;20521;-74
2022/02/03 17:16:05;;;;;;;112.30;63.63;;;;;;;;;;6154753;23;20040;-74
2022/02/03 17:18:32;;;;;;;107.63;54.90;;;;;;;;;;6154545;23;20431;-74
2022/02/03 17:20:58;;;;;;;385.90;147.93;;;;;;;;;;6155238;23;20005;-74
2022/02/03 17:23:26;;;;;;;238.07;100.38;;;;;;;;;;6154739;23;20451;-74
2022/02/03 17:26:07;;;;;;;79.60;42.90;;;;;;;;;;6154721;23;20025;-74
2022/02/03 17:31:06;;;;;;;75.20;41.85;;;;;;;;;;6154542;23;20009;-74
2022/02/03 18:30:30;;;;;;;116.38;56.70;;;;;;;;;;6154517;23;20092;-73
2022/02/03 18:35:44;;;;;;;115.78;56.95;;;;;;;;;;6154311;23;20076;-73
2022/02/03 18:47:37;;;;;;;115.30;55.22;;;;;;;;;;6153592;23;20006;-74
2022/02/03 18:49:56;;;;;;;100.35;50.25;;;;;;;;;;6150013;23;20088;-73
2022/02/03 18:52:51;;;;;;;101.32;47.80;;;;;;;;;;6154131;23;20476;-74
2022/02/03 18:55:16;;;;;;;99.13;46.95;;;;;;;;;;6153132;23;20160;-74
2022/02/03 19:12:02;;;;;;;122.82;62.42;;;;;;;;;;6156448;23;20430;-73
2022/02/03 20:05:04;;;;;;;116.53;64.22;;;;;;;;;;6157998;23;20125;-74
2022/02/03 20:10:08;;;;;;;127.93;56.45;;;;;;;;;;6157946;23;20001;-73
2022/02/03 20:12:34;;;;;;;127.43;55.17;;;;;;;;;;6158411;23;20005;-74
2022/02/03 20:15:00;;;;;;;116.53;49.03;;;;;;;;;;6157326;23;20057;-73
2022/02/03 20:17:29;;;;;;;87.55;39.92;;;;;;;;;;6157815;23;20012;-73
2022/02/03 20:19:55;;;;;;;142.00;55.90;;;;;;;;;;6157638;23;20001;-74
2022/02/03 20:22:26;;;;;;;85.93;37.08;;;;;;;;;;6131308;23;20445;-74
2022/02/03 20:24:52;;;;;;;183.45;71.70;;;;;;;;;;6131536;23;20002;-74
2022/02/03 20:27:18;;;;;;;275.17;92.43;;;;;;;;;;6157403;23;20407;-74
2022/02/03 20:29:44;;;;;;;220.10;74.43;;;;;;;;;;6158025;23;20008;-74
2022/02/03 20:32:09;;;;;;;415.42;127.50;;;;;;;;;;6157856;23;20001;-73
2022/02/03 20:34:36;;;;;;;273.00;86.70;;;;;;;;;;6157649;23;20002;-74
2022/02/03 20:37:01;;;;;;;163.82;54.92;;;;;;;;;;6157498;23;20318;-73
2022/02/03 20:39:27;;;;;;;212.80;70.00;;;;;;;;;;6157562;23;20012;-73
2022/02/03 20:41:53;;;;;;;324.25;100.70;;;;;;;;;;6156958;23;20033;-73
2022/02/03 20:44:19;;;;;;;411.80;129.13;;;;;;;;;;6157135;23;20069;-74
2022/02/03 20:46:47;;;;;;;288.33;90.95;;;;;;;;;;6156899;23;20422;-73
2022/02/03 20:49:13;;;;;;;299.60;102.63;;;;;;;;;;6131031;23;20017;-73
2022/02/03 20:51:40;;;;;;;185.05;64.55;;;;;;;;;;6156884;23;20449;-73
2022/02/03 20:54:05;;;;;;;159.55;58.85;;;;;;;;;;6157082;23;20508;-74
2022/02/03 20:56:31;;;;;;;125.18;46.55;;;;;;;;;;6158141;23;20025;-73
2022/02/03 20:59:00;;;;;;;112.28;44.55;;;;;;;;;;6157392;23;20009;-72
2022/02/03 21:01:31;;;;;;;133.27;51.35;;;;;;;;;;6157694;23;19998;-66
2022/02/03 21:04:30;;;;;;;110.40;51.47;;;;;;;;;;6156971;23;20013;-66
2022/02/03 21:06:42;;;;;;;104.93;51.50;;;;;;;;;;6156637;23;20408;-66
2022/02/03 21:09:09;;;;;;;85.65;41.15;;;;;;;;;;6131156;23;20029;-67
2022/02/03 21:11:34;;;;;;;120.68;63.88;;;;;;;;;;6157399;23;20075;-72
2022/02/03 21:14:02;;;;;;;99.53;50.47;;;;;;;;;;6157976;23;20458;-73
2022/02/03 21:16:28;;;;;;;60.10;28.20;;;;;;;;;;6157539;23;20009;-72
2022/02/03 21:18:54;;;;;;;53.90;26.35;;;;;;;;;;6157753;23;20698;-72
2022/02/03 21:21:21;;;;;;;48.33;23.63;;;;;;;;;;6157517;23;20005;-73
2022/02/03 21:23:46;;;;;;;70.03;33.95;;;;;;;;;;6156956;23;20097;-72
2022/02/03 21:26:20;;;;;;;120.85;52.95;;;;;;;;;;6131406;23;20450;-66
2022/02/03 21:28:49;;;;;;;129.98;59.47;;;;;;;;;;6157549;23;20465;-74
2022/02/03 21:31:15;;;;;;;117.50;54.50;;;;;;;;;;6157359;23;20097;-67
2022/02/03 21:33:50;;;;;;;125.85;56.88;;;;;;;;;;6131117;23;20050;-73
2022/02/03 21:36:19;;;;;;;128.18;57.42;;;;;;;;;;6157180;23;20089;-73
2022/02/03 21:38:44;;;;;;;94.35;46.13;;;;;;;;;;6156960;23;20553;-67
2022/02/03 21:41:11;;;;;;;70.38;36.28;;;;;;;;;;6131203;23;20029;-73
2022/02/03 21:43:36;;;;;;;64.25;30.80;;;;;;;;;;6131271;23;20005;-74
2022/02/03 21:46:02;;;;;;;67.05;34.40;;;;;;;;;;6131072;23;20035;-74
2022/02/03 21:48:29;;;;;;;71.32;37.55;;;;;;;;;;6157076;23;20010;-73
2022/02/03 21:50:58;;;;;;;57.15;31.73;;;;;;;;;;6157327;23;20348;-73
2022/02/03 21:53:30;;;;;;;52.72;28.92;;;;;;;;;;6156959;23;20008;-73
2022/02/03 21:55:56;;;;;;;54.55;27.02;;;;;;;;;;6157210;23;20052;-73
2022/02/03 21:58:27;;;;;;;53.33;29.10;;;;;;;;;;6157355;23;20029;-73
2022/02/03 22:00:54;;;;;;;66.88;35.10;;;;;;;;;;6131099;23;20029;-67
2022/02/03 22:03:20;;;;;;;88.80;42.60;;;;;;;;;;6156841;23;20416;-66
2022/02/03 22:05:47;;;;;;;93.07;42.80;;;;;;;;;;6157818;23;20084;-66
2022/02/03 22:08:13;;;;;;;108.40;47.80;;;;;;;;;;6157100;23;20096;-66
2022/02/03 22:10:39;;;;;;;101.72;45.15;;;;;;;;;;6157069;23;20020;-66
2022/02/03 22:13:04;;;;;;;100.25;46.60;;;;;;;;;;6156897;23;20419;-65
2022/02/03 22:15:30;;;;;;;104.75;46.10;;;;;;;;;;6156877;23;20010;-64
2022/02/03 22:18:10;;;;;;;87.22;40.55;;;;;;;;;;6130325;23;20005;-67
2022/02/03 22:20:55;;;;;;;84.57;37.85;;;;;;;;;;6107559;23;20014;-67
2022/02/03 22:44:30;;;;;;;48.35;26.25;;;;;;;;;;6156561;23;20060;-74
2022/02/03 22:49:43;;;;;;;48.22;26.52;;;;;;;;;;6157183;23;20351;-73
2022/02/03 22:52:10;;;;;;;53.42;28.63;;;;;;;;;;6156413;23;20033;-74
2022/02/03 22:54:39;;;;;;;56.10;30.38;;;;;;;;;;6156239;23;20005;-74
2022/02/03 22:57:05;;;;;;;59.53;31.08;;;;;;;;;;6155668;23;20001;-68
2022/02/03 23:01:56;;;;;;;58.40;30.25;;;;;;;;;;6156567;23;20298;-66
2022/02/03 23:04:21;;;;;;;63.15;30.52;;;;;;;;;;6155722;23;20068;-74
2022/02/03 23:06:53;;;;;;;65.78;30.05;;;;;;;;;;6156424;23;20010;-74
2022/02/03 23:09:41;;;;;;;69.10;32.58;;;;;;;;;;6156422;23;20001;-74
2022/02/03 23:12:13;;;;;;;65.00;33.05;;;;;;;;;;6156598;23;20001;-65
2022/02/03 23:20:09;;;;;;;65.25;33.80;;;;;;;;;;6156752;23;20008;-73
2022/02/03 23:22:37;;;;;;;64.68;31.27;;;;;;;;;;6156596;23;20005;-74
2022/02/03 23:25:09;;;;;;;59.67;27.45;;;;;;;;;;6129900;23;20006;-73
2022/02/03 23:30:16;;;;;;;44.67;23.10;;;;;;;;;;6156263;23;20009;-73
2022/02/03 23:32:42;;;;;;;42.60;20.90;;;;;;;;;;6156519;23;20012;-73
2022/02/03 23:37:37;;;;;;;38.80;18.63;;;;;;;;;;6156022;23;20033;-65
2022/02/03 23:40:10;;;;;;;37.10;17.38;;;;;;;;;;6156193;23;20100;-66
